createdAt,value
2018-06-17T00:00:56.256Z,100937.44
2018-06-17T00:03:23.395Z,100934.00
2018-06-17T00:05:50.502Z,100934.95
2018-06-17T00:08:17.733Z,100941.23
2018-06-17T00:10:44.939Z,100937.59
2018-06-17T00:13:12.051Z,100929.19
2018-06-17T00:15:39.216Z,100939.48
2018-06-17T00:18:06.345Z,100938.87
2018-06-17T00:20:33.468Z,100942.54
2018-06-17T00:23:00.613Z,100936.79
2018-06-17T00:25:27.771Z,100936.27
2018-06-17T00:27:54.924Z,100938.73
2018-06-17T00:30:22.193Z,100941.70
2018-06-17T00:32:49.485Z,100936.23
2018-06-17T00:35:16.622Z,100940.10
2018-06-17T00:37:43.796Z,100941.32
2018-06-17T00:40:10.923Z,100940.19
2018-06-17T00:42:38.060Z,100936.66
2018-06-17T00:45:05.239Z,100932.58
2018-06-17T00:47:32.363Z,100932.69
2018-06-17T00:49:59.484Z,100929.73
2018-06-17T00:52:26.726Z,100935.49
2018-06-17T00:54:54.004Z,100929.06
2018-06-17T00:57:32.751Z,100933.66
2018-06-17T00:59:59.895Z,100931.75
2018-06-17T01:02:27.148Z,100934.98
2018-06-17T01:04:54.321Z,100927.95
2018-06-17T01:07:21.468Z,100934.77
2018-06-17T01:09:48.585Z,100935.95
2018-06-17T01:12:15.839Z,100924.97
2018-06-17T01:14:42.978Z,100928.05
2018-06-17T01:17:10.087Z,100926.78
2018-06-17T01:19:37.319Z,100921.92
2018-06-17T01:22:04.423Z,100924.12
2018-06-17T01:24:32.623Z,100922.13
2018-06-17T01:26:59.778Z,100920.25
2018-06-17T01:29:26.931Z,100916.28
2018-06-17T01:31:54.063Z,100918.16
2018-06-17T01:34:21.241Z,100920.80
2018-06-17T01:36:48.359Z,100920.90
2018-06-17T01:39:15.516Z,100924.47
2018-06-17T01:41:42.678Z,100919.49
2018-06-17T01:44:09.806Z,100921.26
2018-06-17T01:46:36.916Z,100920.70
2018-06-17T01:49:04.129Z,100912.29
2018-06-17T01:51:31.256Z,100913.12
2018-06-17T01:53:58.393Z,100912.09
2018-06-17T01:56:25.576Z,100914.84
2018-06-17T01:58:52.683Z,100913.44
2018-06-17T02:01:19.864Z,100910.21
2018-06-17T02:03:52.824Z,100911.34
2018-06-17T02:06:25.730Z,100909.77
2018-06-17T02:08:58.572Z,100908.82
2018-06-17T02:12:31.030Z,100912.69
2018-06-17T02:14:58.875Z,100909.76
2018-06-17T02:17:26.776Z,100910.16
2018-06-17T02:19:54.545Z,100902.26
2018-06-17T02:22:21.790Z,100902.72
2018-06-17T02:24:49.031Z,100901.15
2018-06-17T02:27:16.209Z,100908.31
2018-06-17T02:29:43.503Z,100910.23
2018-06-17T02:32:10.708Z,100904.61
2018-06-17T02:34:38.044Z,100910.97
2018-06-17T02:37:05.636Z,100909.24
2018-06-17T02:39:32.800Z,100902.36
2018-06-17T02:41:59.925Z,100899.24
2018-06-17T02:44:27.103Z,100899.15
2018-06-17T02:47:00.015Z,100901.34
2018-06-17T02:49:33.025Z,100899.30
2018-06-17T02:52:06.020Z,100897.58
2018-06-17T02:54:38.894Z,100893.53
2018-06-17T02:57:06.580Z,100895.27
2018-06-17T02:59:33.660Z,100889.67
2018-06-17T03:02:01.245Z,100891.47
2018-06-17T03:04:28.379Z,100886.38
2018-06-17T03:06:55.520Z,100882.05
2018-06-17T03:09:22.853Z,100880.38
2018-06-17T03:11:50.020Z,100880.56
2018-06-17T03:14:17.244Z,100887.42
2018-06-17T03:16:44.450Z,100882.70
2018-06-17T03:19:11.632Z,100887.64
2018-06-17T03:21:38.772Z,100882.91
2018-06-17T03:24:05.965Z,100880.13
2018-06-17T03:26:38.675Z,100879.91
2018-06-17T03:29:11.500Z,100883.48
2018-06-17T03:31:44.287Z,100877.31
2018-06-17T03:34:11.459Z,100882.31
2018-06-17T03:36:38.565Z,100883.12
2018-06-17T03:39:06.394Z,100883.58
2018-06-17T03:41:33.587Z,100876.61
2018-06-17T03:44:00.735Z,100882.71
2018-06-17T03:46:27.864Z,100880.19
2018-06-17T03:48:55.107Z,100887.23
2018-06-17T03:51:22.202Z,100887.29
2018-06-17T03:53:49.358Z,100878.06
2018-06-17T03:56:16.523Z,100886.61
2018-06-17T03:58:43.632Z,100884.70
2018-06-17T04:01:10.769Z,100885.91
2018-06-17T04:03:37.919Z,100892.27
2018-06-17T04:06:05.023Z,100896.03
2018-06-17T04:08:32.127Z,100896.59
2018-06-17T04:10:59.287Z,100895.33
2018-06-17T04:13:26.506Z,100895.11
2018-06-17T04:15:53.681Z,100897.58
2018-06-17T04:18:20.908Z,100898.50
2018-06-17T04:20:48.036Z,100906.45
2018-06-17T04:23:15.108Z,100899.52
2018-06-17T04:25:42.280Z,100902.30
2018-06-17T04:28:09.397Z,100899.78
2018-06-17T04:30:36.497Z,100899.13
2018-06-17T04:33:03.647Z,100896.04
2018-06-17T04:35:30.753Z,100901.33
2018-06-17T04:37:57.855Z,100900.33
2018-06-17T04:40:25.048Z,100897.03
2018-06-17T04:42:52.163Z,100895.68
2018-06-17T04:45:19.350Z,100895.54
2018-06-17T04:47:46.541Z,100895.70
2018-06-17T04:50:13.684Z,100898.11
2018-06-17T04:52:40.780Z,100903.83
2018-06-17T04:55:07.958Z,100910.56
2018-06-17T04:57:35.098Z,100908.22
2018-06-17T05:00:02.230Z,100908.27
2018-06-17T05:02:29.435Z,100907.95
2018-06-17T05:04:56.547Z,100913.72
2018-06-17T05:07:23.666Z,100928.14
2018-06-17T05:09:50.830Z,100922.77
2018-06-17T05:12:17.958Z,100916.53
2018-06-17T05:14:45.071Z,100913.45
2018-06-17T05:17:12.216Z,100924.49
2018-06-17T05:19:39.415Z,100928.44
2018-06-17T05:22:06.794Z,100927.46
2018-06-17T05:24:33.949Z,100928.37
2018-06-17T05:27:01.081Z,100933.65
2018-06-17T05:29:28.352Z,100935.55
2018-06-17T05:31:56.009Z,100939.32
2018-06-17T05:34:23.113Z,100939.41
2018-06-17T05:36:50.289Z,100937.22
2018-06-17T05:39:17.467Z,100940.69
2018-06-17T05:41:44.881Z,100938.48
2018-06-17T05:44:12.023Z,100944.38
2018-06-17T05:46:39.188Z,100944.68
2018-06-17T05:49:06.616Z,100948.60
2018-06-17T05:51:34.307Z,100944.86
2018-06-17T05:54:01.525Z,100939.25
2018-06-17T05:56:28.743Z,100947.25
2018-06-17T05:58:55.911Z,100944.31
2018-06-17T06:01:23.096Z,100942.30
2018-06-17T06:03:50.271Z,100942.94
2018-06-17T06:06:17.387Z,100948.31
2018-06-17T06:08:44.535Z,100945.41
2018-06-17T06:11:11.739Z,100950.67
2018-06-17T06:13:38.867Z,100962.98
2018-06-17T06:16:06.126Z,100961.55
2018-06-17T06:18:33.367Z,100951.02
2018-06-17T06:21:00.584Z,100951.42
2018-06-17T06:23:27.749Z,100949.94
2018-06-17T06:25:54.945Z,100954.62
2018-06-17T06:28:22.054Z,100950.28
2018-06-17T06:30:49.191Z,100950.57
2018-06-17T06:33:16.320Z,100949.13
2018-06-17T06:35:45.888Z,100955.31
2018-06-17T06:38:13.052Z,100958.39
2018-06-17T06:40:40.309Z,100954.59
2018-06-17T06:43:07.642Z,100952.21
2018-06-17T06:45:34.860Z,100953.73
2018-06-17T06:48:02.026Z,100952.83
2018-06-17T06:50:29.219Z,100958.03
2018-06-17T06:52:57.265Z,100960.63
2018-06-17T06:55:24.429Z,100954.70
2018-06-17T06:57:51.656Z,100957.83
2018-06-17T07:00:19.068Z,100960.82
2018-06-17T07:02:57.568Z,100962.72
2018-06-17T07:05:36.691Z,100961.53
2018-06-17T07:08:15.219Z,100967.23
2018-06-17T07:10:42.438Z,100970.59
2018-06-17T07:13:09.552Z,100975.77
2018-06-17T07:15:49.317Z,100979.73
2018-06-17T07:18:28.920Z,100978.86
2018-06-17T07:20:56.782Z,100979.42
2018-06-17T07:23:24.002Z,100973.55
2018-06-17T07:26:30.267Z,100977.39
2018-06-17T07:29:08.835Z,100976.91
2018-06-17T07:31:36.527Z,100972.42
2018-06-17T07:34:03.847Z,100981.16
2018-06-17T07:36:30.980Z,100981.84
2018-06-17T07:38:58.610Z,100992.22
2018-06-17T07:41:26.871Z,100995.66
2018-06-17T07:43:54.264Z,100991.78
2018-06-17T07:46:21.703Z,100994.77
2018-06-17T07:49:25.602Z,100992.21
2018-06-17T07:52:05.435Z,100999.44
2018-06-17T07:54:32.797Z,100998.94
2018-06-17T07:57:01.060Z,101001.17
2018-06-17T07:59:28.376Z,101003.86
2018-06-17T08:01:55.850Z,101008.20
2018-06-17T08:04:23.023Z,101002.68
2018-06-17T08:06:50.523Z,101005.36
2018-06-17T08:09:17.729Z,101003.16
2018-06-17T08:11:45.888Z,101004.36
2018-06-17T08:14:13.054Z,101012.81
2018-06-17T08:16:40.176Z,101007.69
2018-06-17T08:19:07.365Z,101015.53
2018-06-17T08:21:34.623Z,101020.18
2018-06-17T08:24:01.906Z,101012.69
2018-06-17T08:26:29.219Z,101015.77
2018-06-17T08:28:56.947Z,101017.35
2018-06-17T08:31:24.516Z,101018.46
2018-06-17T08:33:51.790Z,101020.42
2018-06-17T08:36:19.054Z,101026.03
2018-06-17T08:38:46.180Z,101028.27
2018-06-17T08:41:13.331Z,101031.45
2018-06-17T08:43:40.647Z,101035.98
2018-06-17T08:46:07.885Z,101027.39
2018-06-17T08:48:35.031Z,101022.70
2018-06-17T08:51:02.375Z,101022.83
2018-06-17T08:53:29.671Z,101021.52
2018-06-17T08:55:57.048Z,101019.00
2018-06-17T08:58:24.312Z,101016.75
2018-06-17T09:00:51.450Z,101020.33
2018-06-17T09:03:18.637Z,101008.77
2018-06-17T09:05:46.140Z,101018.47
2018-06-17T09:08:13.349Z,101019.59
2018-06-17T09:10:40.548Z,101013.91
2018-06-17T09:13:07.741Z,101017.17
2018-06-17T09:15:34.970Z,101011.52
2018-06-17T09:18:02.189Z,101011.11
2018-06-17T09:20:29.498Z,101021.77
2018-06-17T09:22:56.976Z,101023.89
2018-06-17T09:25:24.134Z,101018.45
2018-06-17T09:27:51.332Z,101022.22
2018-06-17T09:30:18.479Z,101026.91
2018-06-17T09:32:45.689Z,101020.41
2018-06-17T09:35:12.965Z,101017.78
2018-06-17T09:37:40.067Z,101002.08
2018-06-17T09:40:07.218Z,101014.69
2018-06-17T09:42:35.205Z,101013.36
2018-06-17T09:45:02.520Z,101018.53
2018-06-17T09:47:29.822Z,101007.50
2018-06-17T09:49:57.396Z,101003.22
2018-06-17T09:52:24.652Z,101006.80
2018-06-17T09:54:51.765Z,101007.48
2018-06-17T09:57:18.937Z,100998.31
2018-06-17T09:59:46.148Z,101005.62
2018-06-17T10:02:13.302Z,101008.14
2018-06-17T10:04:40.659Z,101002.11
2018-06-17T10:07:07.897Z,101006.92
2018-06-17T10:09:46.619Z,101000.22
2018-06-17T10:12:13.864Z,101017.81
2018-06-17T10:14:40.988Z,100997.97
2018-06-17T10:17:08.180Z,100996.05
2018-06-17T10:19:35.351Z,100997.41
2018-06-17T10:22:02.725Z,100993.61
2018-06-17T10:24:30.083Z,100998.11
2018-06-17T10:26:57.392Z,100996.11
2018-06-17T10:29:24.572Z,101001.55
2018-06-17T10:31:51.770Z,100995.54
2018-06-17T10:34:18.928Z,101001.55
2018-06-17T10:36:46.063Z,100996.97
2018-06-17T10:39:13.219Z,100994.36
2018-06-17T10:41:40.371Z,100990.13
2018-06-17T10:44:07.529Z,100987.51
2018-06-17T10:46:34.696Z,100986.11
2018-06-17T10:49:01.900Z,100996.36
2018-06-17T10:51:29.092Z,100994.36
2018-06-17T10:53:56.387Z,100995.11
2018-06-17T10:56:23.527Z,101001.20
2018-06-17T10:58:50.757Z,100994.50
2018-06-17T11:01:17.969Z,100991.78
2018-06-17T11:03:45.056Z,100997.11
2018-06-17T11:06:12.300Z,100995.47
2018-06-17T11:08:39.444Z,100997.50
2018-06-17T11:11:06.644Z,100998.45
2018-06-17T11:13:34.039Z,100993.58
2018-06-17T11:16:01.309Z,100997.02
2018-06-17T11:18:28.671Z,100996.72
2018-06-17T11:20:55.959Z,100982.37
2018-06-17T11:23:23.151Z,100991.35
2018-06-17T11:25:50.269Z,100992.40
2018-06-17T11:28:18.395Z,100980.16
2018-06-17T11:30:45.559Z,100986.98
2018-06-17T11:33:12.674Z,100982.89
2018-06-17T11:35:39.793Z,100984.88
2018-06-17T11:38:06.971Z,100985.97
2018-06-17T11:40:34.220Z,100983.74
2018-06-17T11:43:01.488Z,100987.59
2018-06-17T11:45:28.981Z,100986.05
2018-06-17T11:47:56.320Z,100992.13
2018-06-17T11:50:23.471Z,100994.00
2018-06-17T11:52:50.687Z,100990.95
2018-06-17T11:55:17.817Z,100980.90
2018-06-17T11:57:44.939Z,100984.19
2018-06-17T12:00:12.086Z,100996.47
2018-06-17T12:02:39.221Z,100985.30
2018-06-17T12:05:06.357Z,100984.72
2018-06-17T12:07:33.631Z,100990.69
2018-06-17T12:10:00.931Z,100993.59
2018-06-17T12:12:28.365Z,100995.81
2018-06-17T12:14:55.580Z,100989.50
2018-06-17T12:17:22.728Z,100987.69
2018-06-17T12:19:50.706Z,100993.58
2018-06-17T12:22:17.868Z,100991.32
2018-06-17T12:24:45.069Z,100991.17
2018-06-17T12:27:12.267Z,100984.70
2018-06-17T12:29:39.439Z,100991.61
2018-06-17T12:32:06.571Z,100993.45
2018-06-17T12:34:34.049Z,100984.29
2018-06-17T12:37:01.339Z,100986.37
2018-06-17T12:39:28.752Z,100984.40
2018-06-17T12:41:56.121Z,100982.91
2018-06-17T12:44:23.355Z,100989.18
2018-06-17T12:46:50.464Z,100986.31
2018-06-17T12:49:17.578Z,100993.16
2018-06-17T12:51:44.752Z,100987.88
2018-06-17T12:54:11.899Z,100991.06
2018-06-17T12:56:39.029Z,100995.72
2018-06-17T12:59:06.265Z,100986.16
2018-06-17T13:01:33.528Z,100990.14
2018-06-17T13:04:00.640Z,100986.42
2018-06-17T13:06:27.868Z,100990.06
2018-06-17T13:08:55.003Z,100985.64
2018-06-17T13:11:22.145Z,100986.49
2018-06-17T13:13:49.345Z,100991.14
2018-06-17T13:16:16.589Z,100993.63
2018-06-17T13:18:43.984Z,100991.67
2018-06-17T13:21:11.300Z,100996.35
2018-06-17T13:23:38.805Z,100988.90
2018-06-17T13:26:06.181Z,100989.61
2018-06-17T13:28:33.405Z,100997.35
2018-06-17T13:31:00.538Z,100997.55
2018-06-17T13:33:27.680Z,100986.75
2018-06-17T13:35:54.874Z,100983.88
2018-06-17T13:38:22.023Z,100982.05
2018-06-17T13:40:49.161Z,100982.78
2018-06-17T13:43:16.353Z,100993.99
2018-06-17T13:45:43.682Z,100993.67
2018-06-17T13:48:10.975Z,100997.30
2018-06-17T13:50:38.527Z,100989.50
2018-06-17T13:53:06.047Z,100993.64
2018-06-17T13:55:33.155Z,100987.78
2018-06-17T13:58:00.333Z,100998.71
2018-06-17T14:00:27.701Z,100997.99
2018-06-17T14:02:54.885Z,101000.85
2018-06-17T14:05:22.068Z,101003.19
2018-06-17T14:07:49.215Z,101003.98
2018-06-17T14:10:16.354Z,100998.52
2018-06-17T14:12:43.557Z,101002.67
2018-06-17T14:15:11.709Z,101000.85
2018-06-17T14:17:38.933Z,101006.70
2018-06-17T14:20:07.118Z,101008.22
2018-06-17T14:22:34.435Z,101006.87
2018-06-17T14:25:01.803Z,101004.37
2018-06-17T14:27:30.192Z,101008.45
2018-06-17T14:29:57.387Z,101005.22
2018-06-17T14:32:24.539Z,101013.49
2018-06-17T14:34:51.724Z,101007.34
2018-06-17T14:37:18.881Z,101008.31
2018-06-17T14:39:46.062Z,101013.11
2018-06-17T14:42:18.875Z,101010.50
2018-06-17T14:44:51.719Z,100997.76
2018-06-17T14:47:24.881Z,101001.16
2018-06-17T14:49:57.837Z,101008.23
2018-06-17T14:52:30.401Z,101002.69
2018-06-17T14:54:57.563Z,101010.65
2018-06-17T14:57:24.928Z,101005.41
2018-06-17T14:59:52.131Z,101007.92
2018-06-17T15:02:19.315Z,101002.71
2018-06-17T15:04:46.740Z,101018.69
2018-06-17T15:07:14.165Z,101016.45
2018-06-17T15:09:41.561Z,101021.31
2018-06-17T15:12:08.991Z,101013.72
2018-06-17T15:14:36.561Z,101021.01
2018-06-17T15:17:03.836Z,101018.11
2018-06-17T15:19:31.101Z,101033.84
2018-06-17T15:21:58.352Z,101016.64
2018-06-17T15:24:25.517Z,101019.52
2018-06-17T15:26:52.787Z,101023.39
2018-06-17T15:29:20.105Z,101029.77
2018-06-17T15:31:52.849Z,101032.59
2018-06-17T15:34:25.840Z,101035.03
2018-06-17T15:38:00.249Z,101037.37
2018-06-17T15:40:33.334Z,101030.66
2018-06-17T15:43:00.471Z,101032.94
2018-06-17T15:45:27.792Z,101025.64
2018-06-17T15:47:55.429Z,101025.02
2018-06-17T15:50:23.039Z,101031.89
2018-06-17T15:52:50.765Z,101026.72
2018-06-17T15:55:18.337Z,101035.83
2018-06-17T15:57:45.605Z,101043.19
2018-06-17T16:00:12.796Z,101039.86
2018-06-17T16:02:40.006Z,101037.18
2018-06-17T16:05:07.169Z,101046.53
2018-06-17T16:07:34.617Z,101041.79
2018-06-17T16:10:02.243Z,101050.20
2018-06-17T16:12:34.995Z,101048.55
2018-06-17T16:15:07.712Z,101054.94
2018-06-17T16:17:40.544Z,101057.77
2018-06-17T16:20:13.386Z,101055.57
2018-06-17T16:22:40.578Z,101064.48
2018-06-17T16:25:07.885Z,101067.44
2018-06-17T16:27:35.060Z,101065.13
2018-06-17T16:30:02.540Z,101066.07
2018-06-17T16:32:30.024Z,101061.41
2018-06-17T16:34:57.658Z,101055.52
2018-06-17T16:37:25.103Z,101063.79
2018-06-17T16:39:52.547Z,101063.28
2018-06-17T16:42:19.791Z,101070.14
2018-06-17T16:44:47.935Z,101072.81
2018-06-17T16:47:15.175Z,101073.17
2018-06-17T16:49:42.408Z,101080.40
2018-06-17T16:52:15.364Z,101076.00
2018-06-17T16:54:48.488Z,101074.66
2018-06-17T16:57:21.332Z,101079.42
2018-06-17T16:59:51.316Z,101077.20
2018-06-17T17:02:18.752Z,101078.37
2018-06-17T17:04:46.544Z,101076.72
2018-06-17T17:07:13.874Z,101079.67
2018-06-17T17:09:42.491Z,101082.20
2018-06-17T17:12:10.610Z,101085.38
2018-06-17T17:14:38.275Z,101088.46
2018-06-17T17:17:05.699Z,101098.84
2018-06-17T17:19:34.315Z,101096.10
2018-06-17T17:22:01.666Z,101103.15
2018-06-17T17:24:29.180Z,101096.90
2018-06-17T17:26:56.319Z,101102.53
2018-06-17T17:29:23.561Z,101108.33
2018-06-17T17:31:56.344Z,101113.62
2018-06-17T17:34:30.676Z,101119.94
2018-06-17T17:37:04.219Z,101126.05
2018-06-17T17:39:40.327Z,101120.59
2018-06-17T17:42:07.457Z,101129.22
2018-06-17T17:44:40.446Z,101128.67
2018-06-17T17:47:13.242Z,101136.84
2018-06-17T17:49:40.439Z,101137.36
2018-06-17T17:52:07.540Z,101137.16
2018-06-17T17:54:34.696Z,101147.73
2018-06-17T17:57:01.973Z,101148.08
2018-06-17T17:59:29.474Z,101148.22
2018-06-17T18:01:56.838Z,101145.77
2018-06-17T18:04:24.135Z,101145.48
2018-06-17T18:06:51.585Z,101144.97
2018-06-17T18:09:18.799Z,101149.88
2018-06-17T18:11:45.960Z,101149.09
2018-06-17T18:14:13.071Z,101148.50
2018-06-17T18:16:40.256Z,101155.45
2018-06-17T18:19:07.380Z,101154.50
2018-06-17T18:21:35.119Z,101165.04
2018-06-17T18:24:02.489Z,101167.95
2018-06-17T18:26:35.424Z,101169.02
2018-06-17T18:29:08.675Z,101171.75
2018-06-17T18:31:42.749Z,101170.61
2018-06-17T18:34:15.511Z,101180.62
2018-06-17T18:36:43.413Z,101182.15
2018-06-17T18:39:10.750Z,101185.47
2018-06-17T18:41:37.981Z,101182.39
2018-06-17T18:44:05.187Z,101178.60
2018-06-17T18:46:32.389Z,101189.02
2018-06-17T18:48:59.985Z,101194.52
2018-06-17T18:51:27.161Z,101201.66
2018-06-17T18:53:54.467Z,101200.75
2018-06-17T18:56:21.645Z,101200.58
2018-06-17T18:58:49.212Z,101202.72
2018-06-17T19:01:17.525Z,101205.19
2018-06-17T19:03:46.137Z,101207.47
2018-06-17T19:06:14.447Z,101207.00
2018-06-17T19:08:47.775Z,101203.37
2018-06-17T19:11:20.905Z,101212.53
2018-06-17T19:14:02.449Z,101215.51
2018-06-17T19:17:38.876Z,101219.87
2018-06-17T19:20:06.106Z,101224.05
2018-06-17T19:22:33.272Z,101224.81
2018-06-17T19:25:00.451Z,101226.85
2018-06-17T19:27:27.625Z,101230.77
2018-06-17T19:29:56.081Z,101237.14
2018-06-17T19:32:24.414Z,101242.39
2018-06-17T19:34:53.030Z,101237.30
2018-06-17T19:37:22.642Z,101240.78
2018-06-17T19:39:51.525Z,101240.28
2018-06-17T19:42:20.791Z,101240.89
2018-06-17T19:44:50.098Z,101247.40
2018-06-17T19:47:18.795Z,101248.39
2018-06-17T19:49:53.010Z,101251.30
2018-06-17T19:52:27.997Z,101252.58
2018-06-17T19:55:01.823Z,101252.09
2018-06-17T19:57:34.982Z,101253.31
2018-06-17T20:00:08.006Z,101254.28
2018-06-17T20:02:35.110Z,101252.92
2018-06-17T20:05:02.837Z,101255.20
2018-06-17T20:07:30.536Z,101257.08
2018-06-17T20:09:58.396Z,101257.75
2018-06-17T20:12:27.032Z,101265.27
2018-06-17T20:14:54.889Z,101260.97
2018-06-17T20:17:22.864Z,101257.20
2018-06-17T20:19:51.005Z,101257.29
2018-06-17T20:22:19.329Z,101251.34
2018-06-17T20:24:46.517Z,101265.55
2018-06-17T20:27:13.688Z,101263.42
2018-06-17T20:29:40.898Z,101264.83
2018-06-17T20:32:13.817Z,101269.36
2018-06-17T20:34:48.059Z,101265.20
2018-06-17T20:37:20.886Z,101262.76
2018-06-17T20:39:54.263Z,101266.61
2018-06-17T20:42:26.972Z,101268.31
2018-06-17T20:44:54.289Z,101271.78
2018-06-17T20:47:21.511Z,101268.84
2018-06-17T20:49:48.886Z,101271.59
2018-06-17T20:52:16.072Z,101261.71
2018-06-17T20:54:43.371Z,101270.51
2018-06-17T20:57:10.859Z,101271.91
2018-06-17T20:59:38.565Z,101271.63
2018-06-17T21:02:06.408Z,101277.13
2018-06-17T21:04:34.229Z,101278.25
2018-06-17T21:07:01.395Z,101280.08
2018-06-17T21:09:28.603Z,101279.02
2018-06-17T21:11:55.851Z,101279.73
2018-06-17T21:14:23.032Z,101273.98
2018-06-17T21:16:50.199Z,101281.11
2018-06-17T21:19:22.936Z,101283.83
2018-06-17T21:21:57.083Z,101281.53
2018-06-17T21:24:30.127Z,101272.10
2018-06-17T21:27:02.917Z,101286.61
2018-06-17T21:29:30.129Z,101288.44
2018-06-17T21:31:57.480Z,101295.88
2018-06-17T21:34:24.794Z,101296.45
2018-06-17T21:36:52.306Z,101298.58
2018-06-17T21:39:19.944Z,101295.70
2018-06-17T21:41:47.916Z,101301.24
2018-06-17T21:44:15.145Z,101302.27
2018-06-17T21:46:42.311Z,101308.62
2018-06-17T21:49:09.459Z,101308.82
2018-06-17T21:51:36.608Z,101306.03
2018-06-17T21:54:03.860Z,101314.63
2018-06-17T21:56:30.982Z,101312.99
2018-06-17T21:58:58.107Z,101314.50
2018-06-17T22:01:25.589Z,101316.02
2018-06-17T22:03:56.587Z,101320.07
2018-06-17T22:06:23.964Z,101318.38
2018-06-17T22:08:56.973Z,101316.38
2018-06-17T22:11:29.907Z,101321.41
2018-06-17T22:14:02.750Z,101323.36
2018-06-17T22:18:42.683Z,101328.16
2018-06-17T22:21:09.981Z,101337.53
2018-06-17T22:23:37.104Z,101337.02
2018-06-17T22:26:04.334Z,101335.69
2018-06-17T22:28:31.491Z,101338.38
2018-06-17T22:30:58.594Z,101341.08
2018-06-17T22:33:26.083Z,101338.23
2018-06-17T22:35:53.501Z,101334.80
2018-06-17T22:38:21.041Z,101340.84
2018-06-17T22:40:48.781Z,101346.21
2018-06-17T22:43:16.198Z,101345.36
2018-06-17T22:45:43.321Z,101353.61
2018-06-17T22:48:10.436Z,101346.77
2018-06-17T22:50:37.591Z,101341.92
2018-06-17T22:53:16.136Z,101345.14
2018-06-17T22:55:43.318Z,101340.16
2018-06-17T22:58:16.219Z,101349.99
2018-06-17T23:00:49.330Z,101349.73
2018-06-17T23:03:22.214Z,101353.39
2018-06-17T23:05:55.141Z,101347.72
2018-06-17T23:08:28.095Z,101346.47
2018-06-17T23:10:55.423Z,101345.22
2018-06-17T23:13:22.857Z,101355.02
2018-06-17T23:15:50.470Z,101345.90
2018-06-17T23:18:18.802Z,101348.55
2018-06-17T23:20:46.011Z,101348.20
2018-06-17T23:23:13.228Z,101356.17
2018-06-17T23:25:40.387Z,101358.02
2018-06-17T23:28:07.646Z,101358.13
2018-06-17T23:30:34.842Z,101362.13
2018-06-17T23:33:02.016Z,101359.28
2018-06-17T23:35:29.304Z,101372.95
2018-06-17T23:37:56.636Z,101370.45
2018-06-17T23:40:23.974Z,101372.71
2018-06-17T23:42:51.913Z,101370.66
2018-06-17T23:45:19.593Z,101370.13
2018-06-17T23:47:53.437Z,101378.97
2018-06-17T23:50:26.678Z,101371.00
2018-06-17T23:52:59.827Z,101375.98
2018-06-17T23:55:32.691Z,101379.69
2018-06-17T23:57:59.861Z,101376.53
